createdAt,value
2023-08-17T00:32:09.726Z,13.52
2023-08-17T05:09:36.564Z,9.40
2023-08-17T05:12:03.620Z,8.75
2023-08-17T05:14:31.378Z,8.90
2023-08-17T05:16:58.883Z,8.45
2023-08-17T05:19:25.761Z,8.55
2023-08-17T05:21:52.792Z,8.45
2023-08-17T05:24:21.703Z,8.82
2023-08-17T05:26:48.652Z,8.52
2023-08-17T05:29:15.523Z,9.07
2023-08-17T05:31:42.460Z,8.68
2023-08-17T05:34:09.368Z,7.82
2023-08-17T05:36:36.538Z,7.55
2023-08-17T05:39:03.734Z,8.73
2023-08-17T05:41:30.544Z,8.88
2023-08-17T05:43:57.560Z,8.80
2023-08-17T05:46:24.570Z,8.80
2023-08-17T05:48:51.847Z,8.57
2023-08-17T05:51:18.806Z,8.00
2023-08-17T05:53:46.116Z,8.40
2023-08-17T05:56:13.060Z,8.38
2023-08-17T05:58:41.401Z,7.78
2023-08-17T06:03:37.214Z,8.38
2023-08-17T06:06:13.814Z,8.80
2023-08-17T06:13:41.378Z,8.25
2023-08-17T06:16:08.486Z,7.88
2023-08-17T06:18:35.889Z,7.97
2023-08-17T06:21:02.814Z,8.32
2023-08-17T06:23:30.000Z,7.32
2023-08-17T06:47:57.996Z,7.60
2023-08-17T06:50:24.974Z,7.55
2023-08-17T06:52:51.909Z,6.85
2023-08-17T07:21:04.566Z,8.18
2023-08-17T07:23:31.511Z,7.47
2023-08-17T07:25:58.395Z,7.13
2023-08-17T07:28:25.272Z,7.13
2023-08-17T07:30:52.200Z,7.65
2023-08-17T07:33:19.079Z,6.93
2023-08-17T07:35:45.987Z,6.80
2023-08-17T07:38:12.888Z,7.28
2023-08-17T07:40:39.809Z,7.35
2023-08-17T07:43:06.787Z,7.40
2023-08-17T07:45:33.678Z,7.80
2023-08-17T07:48:00.738Z,7.47
2023-08-17T07:50:27.685Z,10.88
2023-08-17T07:52:54.812Z,8.68
2023-08-17T07:55:21.979Z,7.18
2023-08-17T07:57:48.872Z,7.85
2023-08-17T08:00:16.314Z,7.35
2023-08-17T08:02:43.313Z,8.38
2023-08-17T08:05:10.382Z,7.97
2023-08-17T08:07:37.304Z,7.95
2023-08-17T08:10:04.368Z,8.23
2023-08-17T08:12:31.257Z,8.00
2023-08-17T08:14:58.153Z,8.05
2023-08-17T08:17:25.386Z,8.60
2023-08-17T08:19:52.622Z,8.90
2023-08-17T08:22:19.608Z,8.60
2023-08-17T08:24:46.564Z,8.57
2023-08-17T08:27:13.484Z,8.70
2023-08-17T08:29:41.018Z,8.75
2023-08-17T08:32:07.899Z,8.45
2023-08-17T08:34:34.769Z,8.82
2023-08-17T08:37:01.894Z,9.70
2023-08-17T08:39:28.879Z,8.60
2023-08-17T08:41:55.871Z,9.25
2023-08-17T08:44:22.887Z,10.05
2023-08-17T08:46:50.062Z,9.65
2023-08-17T08:49:20.595Z,9.27
2023-08-17T08:51:49.878Z,9.30
2023-08-17T08:54:24.424Z,8.70
2023-08-17T08:56:55.977Z,9.45
2023-08-17T08:59:22.905Z,10.10
2023-08-17T09:01:51.783Z,9.75
2023-08-17T09:04:18.945Z,8.50
2023-08-17T09:06:45.839Z,8.52
2023-08-17T09:09:12.856Z,9.07
2023-08-17T09:11:44.918Z,9.15
2023-08-17T09:14:12.106Z,8.50
2023-08-17T09:16:39.066Z,8.38
2023-08-17T09:19:06.556Z,8.95
2023-08-17T09:21:34.220Z,8.02
2023-08-17T09:24:01.148Z,8.18
2023-08-17T09:26:34.301Z,8.93
2023-08-17T09:29:01.795Z,8.25
2023-08-17T09:31:29.222Z,8.38
2023-08-17T09:33:56.096Z,7.68
2023-08-17T09:36:23.608Z,9.23
2023-08-17T09:41:19.430Z,8.60
2023-08-17T09:43:47.368Z,8.93
2023-08-17T09:46:14.408Z,8.90
2023-08-17T09:48:41.325Z,8.32
2023-08-17T09:51:08.250Z,8.02
2023-08-17T09:53:38.544Z,8.70
2023-08-17T09:56:08.773Z,8.68
2023-08-17T09:58:35.757Z,8.25
2023-08-17T10:01:04.822Z,8.70
2023-08-17T10:03:33.121Z,7.88
2023-08-17T10:06:07.331Z,7.97
2023-08-17T10:11:07.218Z,8.43
2023-08-17T10:13:49.386Z,7.70
2023-08-17T10:16:31.110Z,8.50
2023-08-17T10:19:13.716Z,8.35
2023-08-17T10:22:01.150Z,8.05
2023-08-17T10:24:27.964Z,8.98
2023-08-17T10:26:55.209Z,8.82
2023-08-17T10:29:23.989Z,9.23
2023-08-17T10:34:17.698Z,7.90
2023-08-17T10:36:44.678Z,9.00
2023-08-17T10:39:29.303Z,8.23
2023-08-17T10:41:57.513Z,9.20
2023-08-17T10:44:40.462Z,9.13
2023-08-17T10:47:27.232Z,8.60
2023-08-17T10:50:06.294Z,8.93
2023-08-17T10:52:37.247Z,8.63
2023-08-17T10:55:09.947Z,8.38
2023-08-17T10:57:37.878Z,8.40
2023-08-17T11:03:21.129Z,12.30
2023-08-17T11:05:54.919Z,9.23
2023-08-17T11:08:33.451Z,7.97
2023-08-17T11:13:34.227Z,8.63
2023-08-17T11:16:04.617Z,7.15
2023-08-17T11:18:32.851Z,8.02
2023-08-17T11:20:59.778Z,7.47
2023-08-17T11:23:29.433Z,9.75
2023-08-17T11:25:56.405Z,8.65
2023-08-17T11:28:26.503Z,16.08
2023-08-17T11:31:00.107Z,8.27
2023-08-17T11:33:30.727Z,8.02
2023-08-17T11:36:03.164Z,12.00
2023-08-17T11:38:37.877Z,7.18
2023-08-17T11:41:05.237Z,8.25
2023-08-17T11:43:33.394Z,11.52
2023-08-17T11:46:01.723Z,7.75
2023-08-17T11:50:59.218Z,7.32
2023-08-17T11:53:26.181Z,8.18
2023-08-17T11:55:56.287Z,7.35
2023-08-17T11:58:46.819Z,16.92
2023-08-17T12:01:14.465Z,8.60
2023-08-17T12:03:44.476Z,6.72
2023-08-17T12:06:11.943Z,7.05
2023-08-17T12:08:38.761Z,7.05
2023-08-17T12:11:05.931Z,7.38
2023-08-17T12:13:35.899Z,6.88
2023-08-17T12:16:03.525Z,7.13
2023-08-17T12:18:33.122Z,6.13
2023-08-17T12:21:00.034Z,6.40
2023-08-17T12:23:27.093Z,6.35
2023-08-17T12:25:55.649Z,6.45
2023-08-17T12:28:24.256Z,5.72
2023-08-17T12:30:59.797Z,5.90
2023-08-17T12:33:26.836Z,6.15
2023-08-17T12:35:53.926Z,5.75
2023-08-17T12:38:20.793Z,5.65
2023-08-17T12:40:47.642Z,5.32
2023-08-17T12:43:16.041Z,5.03
2023-08-17T12:45:42.952Z,4.90
2023-08-17T12:48:09.874Z,4.75
2023-08-17T12:50:43.429Z,5.00
2023-08-17T12:53:10.626Z,4.63
2023-08-17T12:55:37.546Z,5.07
2023-08-17T12:58:04.614Z,5.00
2023-08-17T13:00:31.525Z,4.40
2023-08-17T13:02:58.408Z,4.97
2023-08-17T13:05:25.287Z,5.13
2023-08-17T13:07:52.223Z,5.03
2023-08-17T13:10:19.281Z,4.20
2023-08-17T13:12:48.252Z,4.90
2023-08-17T13:15:15.213Z,4.72
2023-08-17T13:17:42.973Z,4.68
2023-08-17T13:20:10.843Z,4.85
2023-08-17T13:25:04.946Z,4.80
2023-08-17T13:27:31.880Z,4.57
2023-08-17T13:30:00.157Z,4.90
2023-08-17T13:32:27.889Z,5.45
2023-08-17T13:37:22.866Z,5.30
2023-08-17T13:39:49.704Z,5.53
2023-08-17T13:42:16.602Z,5.65
2023-08-17T13:44:43.529Z,5.57
2023-08-17T13:47:10.342Z,4.20
2023-08-17T13:49:37.175Z,4.10
2023-08-17T13:52:04.610Z,5.35
2023-08-17T13:54:31.559Z,4.90
2023-08-17T13:56:58.450Z,4.55
2023-08-17T13:59:25.368Z,4.90
2023-08-17T14:01:52.329Z,4.78
2023-08-17T14:04:19.820Z,4.25
2023-08-17T14:06:46.801Z,4.43
2023-08-17T14:09:13.661Z,7.00
2023-08-17T14:11:40.929Z,3.50
2023-08-17T14:14:08.766Z,4.43
2023-08-17T14:16:37.614Z,6.82
2023-08-17T14:19:04.910Z,8.32
2023-08-17T14:21:31.850Z,6.63
2023-08-17T14:23:58.716Z,6.80
2023-08-17T14:26:25.620Z,7.72
2023-08-17T14:28:52.582Z,6.68
2023-08-17T14:31:19.696Z,7.80
2023-08-17T14:33:50.696Z,6.80
2023-08-17T14:36:20.797Z,7.00
2023-08-17T14:38:48.016Z,7.22
2023-08-17T14:41:15.268Z,6.88
2023-08-17T14:43:42.229Z,6.07
2023-08-17T14:46:14.850Z,5.53
2023-08-17T14:48:42.118Z,5.18
2023-08-17T14:51:09.246Z,5.47
2023-08-17T14:53:39.186Z,5.97
2023-08-17T14:56:06.592Z,5.13
2023-08-17T14:58:33.578Z,4.97
2023-08-17T15:01:00.656Z,5.05
2023-08-17T15:03:28.170Z,5.75
2023-08-17T15:05:55.254Z,4.50
2023-08-17T15:08:22.261Z,4.30
2023-08-17T15:10:49.350Z,5.10
2023-08-17T15:13:16.585Z,4.55
2023-08-17T15:15:44.430Z,4.32
2023-08-17T15:18:11.508Z,4.70
2023-08-17T15:20:38.513Z,4.28
2023-08-17T15:23:05.706Z,4.85
2023-08-17T15:25:32.846Z,4.72
2023-08-17T15:27:59.749Z,4.97
2023-08-17T15:30:26.750Z,5.50
2023-08-17T15:32:54.090Z,5.65
2023-08-17T15:35:21.078Z,5.40
2023-08-17T15:37:47.973Z,5.50
2023-08-17T15:40:14.977Z,5.35
2023-08-17T15:42:41.862Z,5.05
2023-08-17T15:45:09.203Z,5.47
2023-08-17T15:47:36.111Z,5.78
2023-08-17T15:50:03.087Z,6.03
2023-08-17T15:52:30.032Z,6.70
2023-08-17T15:54:56.995Z,5.60
2023-08-17T15:57:23.914Z,5.65
2023-08-17T15:59:51.596Z,6.22
2023-08-17T16:02:18.850Z,5.80
2023-08-17T16:04:45.798Z,6.28
2023-08-17T16:07:13.223Z,5.68
2023-08-17T16:09:40.314Z,5.28
2023-08-17T16:12:07.434Z,4.80
2023-08-17T16:14:34.712Z,5.03
2023-08-17T16:17:01.689Z,5.57
2023-08-17T16:19:28.587Z,5.43
2023-08-17T16:21:55.453Z,5.60
2023-08-17T16:26:52.151Z,5.22
2023-08-17T16:29:19.055Z,4.80
2023-08-17T16:31:45.957Z,4.88
2023-08-17T16:34:12.880Z,5.78
2023-08-17T16:36:39.760Z,6.15
2023-08-17T16:39:07.211Z,6.65
2023-08-17T16:41:34.092Z,5.60
2023-08-17T16:44:05.701Z,5.68
2023-08-17T16:46:32.973Z,6.30
2023-08-17T16:48:59.897Z,5.82
2023-08-17T16:51:26.802Z,5.60
2023-08-17T16:53:54.922Z,6.40
2023-08-17T16:56:21.837Z,5.68
2023-08-17T16:58:48.788Z,5.78
2023-08-17T17:01:15.742Z,5.88
2023-08-17T17:03:43.641Z,5.45
2023-08-17T17:06:11.779Z,6.47
2023-08-17T17:08:38.789Z,5.50
2023-08-17T17:11:05.778Z,6.53
2023-08-17T17:13:32.743Z,6.80
2023-08-17T17:15:59.753Z,6.78
2023-08-17T17:18:26.888Z,7.15
2023-08-17T17:20:53.776Z,7.00
2023-08-17T17:23:20.689Z,6.10
2023-08-17T17:25:47.831Z,6.65
2023-08-17T17:28:14.688Z,6.30
2023-08-17T17:30:41.745Z,4.82
2023-08-17T17:33:08.800Z,4.47
2023-08-17T17:35:35.834Z,5.50
2023-08-17T17:38:02.793Z,6.05
2023-08-17T17:40:29.755Z,6.45
2023-08-17T17:42:56.712Z,5.72
2023-08-17T17:45:24.887Z,5.82
2023-08-17T17:47:51.737Z,5.90
2023-08-17T17:50:18.689Z,6.95
2023-08-17T17:52:48.325Z,6.25
2023-08-17T17:55:15.630Z,5.57
2023-08-17T17:57:42.634Z,6.93
2023-08-17T18:00:11.457Z,4.90
2023-08-17T18:02:38.465Z,4.95
2023-08-17T18:05:05.888Z,4.85
2023-08-17T18:07:32.780Z,4.90
2023-08-17T18:10:01.466Z,5.57
2023-08-17T18:12:30.046Z,26.25
2023-08-17T18:14:57.953Z,8.75
2023-08-17T18:17:24.960Z,6.63
2023-08-17T18:19:51.985Z,5.38
2023-08-17T18:22:18.981Z,9.02
2023-08-17T18:24:45.838Z,7.30
2023-08-17T18:27:13.819Z,7.70
2023-08-17T18:29:40.689Z,4.72
2023-08-17T18:32:08.123Z,5.88
2023-08-17T18:34:35.101Z,5.60
2023-08-17T18:37:01.999Z,5.55
2023-08-17T18:39:28.928Z,4.05
2023-08-17T18:41:55.798Z,4.70
2023-08-17T18:44:23.678Z,4.13
2023-08-17T18:46:50.572Z,5.63
2023-08-17T18:49:19.820Z,5.55
2023-08-17T18:51:46.817Z,5.68
2023-08-17T18:54:13.723Z,5.18
2023-08-17T18:56:43.275Z,6.30
2023-08-17T18:59:13.285Z,7.00
2023-08-17T19:01:40.228Z,6.88
2023-08-17T19:04:07.204Z,8.05
2023-08-17T19:06:34.125Z,6.38
2023-08-17T19:09:01.220Z,5.70
2023-08-17T19:11:28.489Z,5.22
2023-08-17T19:13:55.411Z,4.93
2023-08-17T19:16:22.334Z,5.55
2023-08-17T19:18:49.302Z,6.30
2023-08-17T19:21:16.299Z,5.28
2023-08-17T19:23:45.077Z,6.13
2023-08-17T19:26:11.958Z,5.82
2023-08-17T19:28:38.811Z,5.57
2023-08-17T19:31:06.162Z,6.15
2023-08-17T19:33:33.201Z,6.82
2023-08-17T19:36:00.101Z,6.97
2023-08-17T19:38:27.026Z,6.13
2023-08-17T19:40:53.945Z,4.95
2023-08-17T19:43:20.890Z,4.93
2023-08-17T19:45:48.323Z,5.70
2023-08-17T19:48:15.255Z,6.55
2023-08-17T19:50:42.303Z,6.43
2023-08-17T19:53:09.263Z,5.97
2023-08-17T19:55:36.289Z,4.50
2023-08-17T19:58:03.384Z,4.95
2023-08-17T20:00:30.279Z,5.00
2023-08-17T20:02:57.292Z,5.45
2023-08-17T20:05:24.306Z,6.07
2023-08-17T20:07:51.319Z,5.82
2023-08-17T20:10:18.305Z,6.68
2023-08-17T20:12:45.234Z,5.70
2023-08-17T20:15:12.354Z,6.28
2023-08-17T20:17:40.814Z,6.95
2023-08-17T20:20:11.283Z,7.57
2023-08-17T20:22:38.265Z,7.38
2023-08-17T20:25:05.505Z,6.72
2023-08-17T20:27:32.619Z,7.28
2023-08-17T20:29:59.500Z,6.65
2023-08-17T20:32:26.453Z,7.25
2023-08-17T20:34:56.254Z,6.85
2023-08-17T20:37:23.280Z,5.50
2023-08-17T20:39:50.191Z,4.60
2023-08-17T20:42:17.265Z,4.97
2023-08-17T20:44:45.139Z,4.72
2023-08-17T20:47:12.178Z,4.55
2023-08-17T20:49:41.600Z,4.45
2023-08-17T20:52:11.191Z,4.28
2023-08-17T20:54:42.994Z,5.80
2023-08-17T20:57:09.866Z,6.03
2023-08-17T20:59:37.284Z,5.50
2023-08-17T21:02:04.520Z,5.25
2023-08-17T21:04:31.448Z,5.70
2023-08-17T21:06:59.508Z,5.15
2023-08-17T21:09:27.400Z,5.00
2023-08-17T21:11:54.866Z,4.95
2023-08-17T21:14:21.758Z,5.38
2023-08-17T21:16:48.738Z,6.60
2023-08-17T21:19:15.899Z,6.53
2023-08-17T21:21:42.797Z,5.88
2023-08-17T21:24:09.788Z,5.45
2023-08-17T21:26:36.733Z,5.57
2023-08-17T21:29:03.817Z,5.80
2023-08-17T21:31:31.516Z,5.22
2023-08-17T21:33:58.427Z,5.40
2023-08-17T21:36:26.178Z,6.25
2023-08-17T21:38:53.394Z,5.70
2023-08-17T21:41:21.793Z,6.30
2023-08-17T21:43:48.886Z,6.57
2023-08-17T21:46:15.803Z,7.28
2023-08-17T21:48:43.242Z,5.35
2023-08-17T21:51:10.235Z,6.18
2023-08-17T21:53:37.256Z,6.90
2023-08-17T21:56:04.415Z,6.22
2023-08-17T21:58:31.283Z,5.72
2023-08-17T22:00:58.612Z,5.90
2023-08-17T22:03:25.830Z,6.10
2023-08-17T22:05:53.546Z,5.60
2023-08-17T22:08:20.754Z,5.97
2023-08-17T22:10:48.527Z,5.95
2023-08-17T22:13:15.560Z,5.82
2023-08-17T22:15:42.493Z,5.28
2023-08-17T22:18:09.551Z,5.07
2023-08-17T22:20:40.202Z,4.90
2023-08-17T22:23:07.415Z,4.78
2023-08-17T22:25:34.668Z,5.40
2023-08-17T22:28:01.580Z,5.70
2023-08-17T22:30:28.677Z,5.93
2023-08-17T22:32:55.742Z,5.75
2023-08-17T22:35:23.127Z,5.13
2023-08-17T22:37:50.176Z,4.95
2023-08-17T22:40:17.087Z,4.90
2023-08-17T22:42:44.121Z,4.57
2023-08-17T22:45:11.415Z,4.88
2023-08-17T22:47:38.334Z,4.47
2023-08-17T22:50:05.973Z,4.38
2023-08-17T22:52:32.816Z,4.55
2023-08-17T22:55:01.185Z,4.65
2023-08-17T22:57:28.388Z,4.13
2023-08-17T22:59:55.665Z,4.85
2023-08-17T23:02:22.617Z,4.28
2023-08-17T23:04:49.512Z,4.93
2023-08-17T23:07:16.430Z,4.95
2023-08-17T23:09:43.456Z,5.18
2023-08-17T23:12:10.312Z,5.30
2023-08-17T23:14:37.338Z,4.93
2023-08-17T23:17:04.718Z,4.85
2023-08-17T23:19:31.888Z,4.80
2023-08-17T23:21:58.958Z,5.35
2023-08-17T23:24:25.772Z,5.35
2023-08-17T23:26:52.646Z,4.55
2023-08-17T23:29:19.546Z,4.53
2023-08-17T23:31:46.464Z,4.85
2023-08-17T23:34:13.419Z,4.03
2023-08-17T23:36:40.402Z,4.57
2023-08-17T23:39:07.478Z,4.68
2023-08-17T23:41:34.574Z,4.75
2023-08-17T23:44:02.203Z,4.38
2023-08-17T23:46:29.236Z,4.30
2023-08-17T23:48:56.396Z,4.90
2023-08-17T23:51:23.450Z,5.63
2023-08-17T23:53:50.368Z,4.93
2023-08-17T23:56:17.616Z,5.32
2023-08-17T23:58:44.587Z,5.32
